Time;durP1;ratioP1;P1;durP2;ratioP2;P2;SDS_P1;SDS_P2;PMS_P1;PMS_P2;Temp;Humidity;BMP_temperature;BMP_pressure;BME280_temperature;BME280_humidity;BME280_pressure;Samples;Min_cycle;Max_cycle;Signal;HPM_P1;HPM_P2
2022/07/13 00:01:46;;;;;;;6.10;5.10;;;;;;;21.85;70.55;102024.59;10418836;28;20042;-79
2022/07/13 00:06:46;;;;;;;5.78;5.13;;;;;;;21.91;74.89;102014.53;10413034;28;20033;-80
2022/07/13 00:11:47;;;;;;;8.02;7.22;;;;;;;21.97;71.57;102008.03;10429498;28;20045;-79
2022/07/13 00:16:47;;;;;;;13.90;6.95;;;;;;;21.89;70.79;102003.75;10433460;28;20091;-78
2022/07/13 00:21:48;;;;;;;9.05;5.32;;;;;;;21.76;70.55;102012.28;10432253;28;20045;-78
2022/07/13 00:26:48;;;;;;;13.23;5.93;;;;;;;21.59;70.48;102006.72;10430374;28;20037;-78
2022/07/13 00:31:49;;;;;;;5.97;5.13;;;;;;;21.44;70.63;101999.00;10430791;28;20045;-78
2022/07/13 00:36:49;;;;;;;11.40;6.25;;;;;;;21.40;70.67;101996.94;10430370;28;20034;-78
2022/07/13 00:41:49;;;;;;;6.53;5.35;;;;;;;;;;10432442;28;20045;-78
2022/07/13 00:46:52;;;;;;;6.57;4.78;;;;;;;21.32;71.41;101998.13;10434819;28;20507;-78
2022/07/13 00:51:53;;;;;;;6.97;6.28;;;;;;;21.37;71.30;101978.97;10438398;28;20058;-78
2022/07/13 00:56:54;;;;;;;5.70;4.78;;;;;;;21.49;71.56;101979.78;10440973;28;20042;-78
2022/07/13 01:01:54;;;;;;;8.23;5.63;;;;;;;21.64;72.14;101956.38;10436565;28;20476;-78
2022/07/13 01:06:54;;;;;;;6.53;5.32;;;;;;;21.79;72.46;101960.28;10404612;28;20033;-78
2022/07/13 01:11:55;;;;;;;6.90;5.35;;;;;;;21.86;72.67;101951.84;10406482;28;20037;-78
2022/07/13 01:16:57;;;;;;;8.55;5.10;;;;;;;22.02;72.04;101953.78;10437174;28;20026;-78
2022/07/13 01:21:59;;;;;;;6.28;5.50;;;;;;;22.12;71.73;101966.94;10421337;28;20030;-78
2022/07/13 01:27:01;;;;;;;6.32;5.80;;;;;;;22.22;71.23;101961.63;10424603;28;20109;-78
2022/07/13 01:32:01;;;;;;;12.63;5.32;;;;;;;22.27;70.91;101958.09;10447049;28;20029;-78
2022/07/13 01:37:01;;;;;;;8.45;5.60;;;;;;;22.30;71.48;101963.09;10447984;28;20034;-78
2022/07/13 01:42:02;;;;;;;7.88;4.50;;;;;;;22.37;70.66;101958.28;10429469;28;20436;-78
2022/07/13 01:47:08;;;;;;;7.05;4.88;;;;;;;22.40;70.25;101946.75;10422293;28;20034;-78
2022/07/13 01:52:08;;;;;;;5.85;5.30;;;;;;;22.46;69.98;101948.50;10417392;28;20049;-78
2022/07/13 01:57:09;;;;;;;4.93;4.47;;;;;;;22.49;69.84;101936.97;10410221;28;20042;-78
2022/07/13 02:02:09;;;;;;;9.18;4.50;;;;;;;22.56;72.37;101924.88;10427879;28;20545;-78
2022/07/13 02:07:10;;;;;;;4.55;3.67;;;;;;;22.63;71.08;101914.50;10428337;28;20067;-78
2022/07/13 02:12:10;;;;;;;8.38;5.40;;;;;;;22.63;70.33;101925.56;10433230;28;20044;-78
2022/07/13 02:17:11;;;;;;;5.97;5.35;;;;;;;22.56;76.90;101930.41;10428059;28;20083;-79
2022/07/13 02:22:11;;;;;;;8.40;3.97;;;;;;;22.58;72.09;101926.31;10430656;28;20059;-78
2022/07/13 02:27:11;;;;;;;10.40;4.75;;;;;;;22.55;70.93;101920.47;10430770;28;20087;-78
2022/07/13 02:32:12;;;;;;;5.28;4.45;;;;;;;22.48;71.50;101915.94;10432747;28;20496;-78
2022/07/13 02:37:12;;;;;;;4.40;3.15;;;;;;;22.50;72.49;101913.78;10431480;28;20037;-78
2022/07/13 02:42:12;;;;;;;4.72;3.70;;;;;;;22.54;71.42;101918.78;10434185;28;20041;-78
2022/07/13 02:47:13;;;;;;;5.07;4.15;;;;;;;22.53;70.78;101923.47;10432021;28;20034;-78
2022/07/13 02:52:13;;;;;;;5.47;4.15;;;;;;;22.54;70.62;101914.09;10430020;28;20053;-78
2022/07/13 02:57:14;;;;;;;3.67;3.33;;;;;;;22.54;70.86;101907.75;10409538;28;20041;-78
2022/07/13 03:02:14;;;;;;;3.60;3.28;;;;;;;22.56;71.17;101903.66;10391646;28;20044;-78
2022/07/13 03:07:15;;;;;;;3.95;3.55;;;;;;;22.61;73.30;101889.06;10427779;28;20056;-77
2022/07/13 03:12:15;;;;;;;5.38;3.30;;;;;;;22.60;71.83;101885.47;10406204;28;20038;-78
2022/07/13 03:17:16;;;;;;;4.63;4.22;;;;;;;22.50;72.22;101894.47;10425050;28;20040;-78
2022/07/13 03:22:16;;;;;;;11.55;3.28;;;;;;;22.44;72.29;101886.34;10423345;28;20069;-78
2022/07/13 03:27:16;;;;;;;4.10;3.70;;;;;;;22.40;71.36;101894.31;10424650;28;20030;-78
2022/07/13 03:32:17;;;;;;;2.92;2.72;;;;;;;22.32;72.95;101888.38;10405457;28;20496;-78
2022/07/13 03:37:17;;;;;;;3.53;3.22;;;;;;;22.37;74.18;101886.53;10421953;28;20079;-78
2022/07/13 03:42:18;;;;;;;5.18;3.50;;;;;;;22.43;74.71;101890.19;10422116;28;20049;-79
2022/07/13 03:47:18;;;;;;;5.38;3.65;;;;;;;22.42;75.17;101894.88;10419780;28;20025;-79
2022/07/13 03:52:19;;;;;;;3.42;3.22;;;;;;;22.49;72.89;101887.28;10419287;28;20049;-78
2022/07/13 03:57:20;;;;;;;5.35;3.20;;;;;;;22.52;73.52;101878.47;10419744;28;20386;-78
2022/07/13 04:02:20;;;;;;;6.50;3.70;;;;;;;22.53;73.16;101893.13;10420349;28;20037;-78
2022/07/13 04:07:21;;;;;;;5.80;3.08;;;;;;;22.54;73.12;101892.03;10421649;28;20030;-79
2022/07/13 04:12:21;;;;;;;16.88;4.28;;;;;;;22.52;73.94;101897.78;10427975;28;20069;-79
2022/07/13 04:17:21;;;;;;;3.83;3.53;;;;;;;22.54;74.12;101883.75;10427003;28;20029;-79
2022/07/13 04:22:22;;;;;;;4.03;3.70;;;;;;;22.60;72.86;101884.66;10431395;28;20120;-78
2022/07/13 04:27:22;;;;;;;2.83;2.63;;;;;;;22.62;73.86;101883.31;10429504;28;20328;-78
2022/07/13 04:32:22;;;;;;;3.93;3.30;;;;;;;22.62;73.74;101879.69;10439862;28;20049;-78
2022/07/13 04:37:23;;;;;;;7.47;3.72;;;;;;;22.65;73.06;101887.47;10436221;28;20821;-78
2022/07/13 04:42:23;;;;;;;6.15;5.25;;;;;;;22.63;72.57;101884.16;10406755;28;20045;-73
2022/07/13 04:47:24;;;;;;;6.28;4.45;;;;;;;22.61;74.89;101880.78;10422689;28;20465;-73
2022/07/13 04:52:24;;;;;;;17.92;4.22;;;;;;;22.62;75.08;101876.94;10421831;28;20057;-73
2022/07/13 04:57:25;;;;;;;6.05;3.30;;;;;;;22.66;77.12;101894.69;10405025;28;20037;-72
2022/07/13 05:02:25;;;;;;;3.88;2.50;;;;;;;22.75;73.35;101895.91;10421504;28;20041;-74
2022/07/13 05:07:26;;;;;;;4.30;3.03;;;;;;;22.78;74.47;101880.75;10404546;28;20091;-70
2022/07/13 05:12:26;;;;;;;7.00;3.20;;;;;;;22.84;76.06;101882.47;10421208;28;20033;-71
2022/07/13 05:17:26;;;;;;;4.60;3.73;;;;;;;22.95;74.02;101882.41;10420274;28;20033;-71
2022/07/13 05:22:27;;;;;;;4.95;2.97;;;;;;;23.04;76.57;101893.00;10422839;28;20282;-78
2022/07/13 05:27:27;;;;;;;3.45;3.15;;;;;;;23.09;78.61;101895.81;10423409;28;20033;-78
2022/07/13 05:32:28;;;;;;;4.75;4.10;;;;;;;23.09;79.01;101901.34;10420734;28;20041;-78
2022/07/13 05:37:28;;;;;;;7.50;3.33;;;;;;;23.06;77.30;101894.41;10421894;28;20453;-78
2022/07/13 05:42:30;;;;;;;5.13;4.13;;;;;;;23.01;78.02;101904.59;10422699;28;20029;-78
2022/07/13 05:47:30;;;;;;;6.45;3.58;;;;;;;23.02;77.10;101909.00;10404167;28;20488;-78
2022/07/13 05:52:33;;;;;;;7.00;4.40;;;;;;;23.25;76.71;101917.03;10421273;28;20072;-78
2022/07/13 05:57:33;;;;;;;8.68;4.13;;;;;;;23.32;79.81;101908.53;10420864;28;20037;-78
2022/07/13 06:02:33;;;;;;;6.80;4.20;;;;;;;23.26;78.58;101915.94;10419691;28;20468;-78
2022/07/13 06:07:34;;;;;;;4.85;4.35;;;;;;;23.18;78.65;101916.38;10418037;28;20096;-71
2022/07/13 06:12:34;;;;;;;4.18;3.83;;;;;;;23.28;77.99;101919.28;10417237;28;20113;-71
2022/07/13 06:17:35;;;;;;;6.27;4.00;;;;;;;23.39;78.21;101926.59;10416317;28;20444;-70
2022/07/13 06:22:35;;;;;;;5.10;3.92;;;;;;;23.65;78.80;101922.19;10400759;28;20764;-72
2022/07/13 06:27:37;;;;;;;5.97;3.72;;;;;;;24.05;79.61;101920.09;10418106;28;20068;-72
2022/07/13 06:32:37;;;;;;;4.30;3.95;;;;;;;24.10;78.12;101915.44;10416880;28;20045;-71
2022/07/13 06:37:37;;;;;;;10.15;4.13;;;;;;;24.22;76.97;101918.06;10416590;28;20123;-71
2022/07/13 06:42:38;;;;;;;4.67;4.17;;;;;;;24.42;76.02;101927.66;10418062;28;20116;-71
2022/07/13 06:47:39;;;;;;;7.00;4.45;;;;;;;24.46;75.78;101928.78;10399547;28;20295;-72
2022/07/13 06:52:40;;;;;;;21.98;4.22;;;;;;;24.57;77.03;101925.00;10416501;28;20363;-70
2022/07/13 06:57:41;;;;;;;4.47;3.72;;;;;;;24.53;74.22;101932.13;10417278;28;20033;-72
2022/07/13 07:02:41;;;;;;;3.47;3.25;;;;;;;24.76;73.68;101940.06;10399287;28;20044;-72
2022/07/13 07:07:42;;;;;;;4.40;3.55;;;;;;;26.27;72.76;101932.78;10400639;28;20029;-70
2022/07/13 07:12:42;;;;;;;6.00;4.13;;;;;;;26.64;70.59;101922.22;10417380;28;20037;-72
2022/07/13 07:17:46;;;;;;;4.20;3.47;;;;;;;27.66;68.82;101934.06;10417799;28;20454;-71
2022/07/13 07:22:48;;;;;;;5.43;3.80;;;;;;;27.13;69.40;101929.88;10414728;28;20041;-72
2022/07/13 07:27:48;;;;;;;5.72;3.47;;;;;;;27.78;68.32;101929.81;10398169;28;20029;-71
2022/07/13 07:32:49;;;;;;;4.32;3.92;;;;;;;28.79;67.31;101922.84;10416717;28;20136;-71
2022/07/13 07:37:49;;;;;;;3.53;3.30;;;;;;;28.79;65.33;101915.31;10415452;28;20065;-71
2022/07/13 07:42:49;;;;;;;7.45;4.20;;;;;;;28.61;64.67;101922.47;10416026;28;20129;-71
2022/07/13 07:47:51;;;;;;;7.88;3.15;;;;;;;28.42;65.68;101915.97;10397125;28;20042;-70
2022/07/13 07:52:51;;;;;;;3.58;3.33;;;;;;;28.32;65.56;101924.41;10396736;28;20129;-72
2022/07/13 07:57:52;;;;;;;6.38;3.85;;;;;;;28.11;65.28;101935.72;10401938;28;20022;-71
2022/07/13 08:02:52;;;;;;;4.07;3.78;;;;;;;29.16;63.08;101942.50;10423776;28;20072;-72
2022/07/13 08:07:53;;;;;;;4.47;4.07;;;;;;;31.08;60.16;101935.22;10406603;28;20382;-71
2022/07/13 08:12:54;;;;;;;4.80;4.18;;;;;;;32.30;56.56;101928.78;10422319;28;20120;-72
2022/07/13 08:17:55;;;;;;;4.75;4.35;;;;;;;32.14;54.08;101933.13;10388815;28;20144;-72
2022/07/13 08:22:55;;;;;;;5.32;4.38;;;;;;;32.14;54.70;101935.91;10422462;28;20132;-70
2022/07/13 08:27:57;;;;;;;3.95;3.65;;;;;;;32.55;53.06;101930.09;10422784;28;20037;-69
2022/07/13 08:32:58;;;;;;;3.60;3.30;;;;;;;32.91;51.99;101942.28;10405039;28;20030;-71
2022/07/13 08:43:17;;;;;;;5.93;3.95;;;;;;;33.02;51.07;101936.06;10406316;28;20049;-72
2022/07/13 08:48:20;;;;;;;4.07;3.63;;;;;;;33.22;49.58;101948.69;10420964;28;20037;-71
2022/07/13 08:53:22;;;;;;;3.10;2.90;;;;;;;33.33;49.81;101944.41;10424732;28;20045;-71
2022/07/13 08:58:22;;;;;;;4.70;4.22;;;;;;;33.59;48.27;101946.47;10421336;28;20038;-71
2022/07/13 09:03:23;;;;;;;4.45;4.10;;;;;;;33.54;47.08;101944.66;10420026;28;20404;-71
2022/07/13 09:08:23;;;;;;;3.33;3.13;;;;;;;33.85;47.29;101938.03;10435879;28;20030;-71
2022/07/13 09:13:50;;;;;;;3.50;3.30;;;;;;;33.75;45.44;101944.81;10420000;28;20033;-71
2022/07/13 09:18:56;;;;;;;3.95;3.65;;;;;;;34.03;45.31;101944.53;10416245;28;20282;-71
2022/07/13 09:23:57;;;;;;;6.00;4.53;;;;;;;33.88;44.30;101945.81;10420071;28;20037;-71
2022/07/13 09:28:59;;;;;;;8.32;4.03;;;;;;;34.08;44.02;101941.53;10418711;28;20493;-70
2022/07/13 09:34:00;;;;;;;9.77;4.95;;;;;;;34.23;44.69;101946.63;10419111;28;20477;-70
2022/07/13 09:39:00;;;;;;;11.68;4.35;;;;;;;34.07;43.31;101955.91;10419010;28;20029;-73
2022/07/13 09:49:41;;;;;;;4.35;2.90;;;;;;;34.59;42.22;101950.19;10432255;28;20436;-70
2022/07/13 09:54:57;;;;;;;3.13;2.92;;;;;;;34.70;42.01;101957.94;10416047;28;20081;-71
2022/07/13 09:59:57;;;;;;;4.25;3.45;;;;;;;34.19;42.79;101951.28;10418243;28;20045;-71
2022/07/13 10:04:58;;;;;;;7.75;3.20;;;;;;;33.91;42.86;101962.00;10418113;28;20128;-70
2022/07/13 10:09:58;;;;;;;8.88;4.25;;;;;;;33.74;43.48;101959.22;10434736;28;20124;-72
2022/07/13 10:14:59;;;;;;;5.00;3.58;;;;;;;33.75;44.40;101963.66;10418716;28;20040;-70
2022/07/13 10:20:04;;;;;;;3.40;3.10;;;;;;;32.86;44.59;101963.72;10416572;28;20104;-70
2022/07/13 10:25:05;;;;;;;;;;;;;;;32.60;43.96;101976.78;10434857;28;20120;-71
2022/07/13 10:30:17;;;;;;;5.10;2.67;;;;;;;32.70;43.37;101982.13;10400209;28;20000;-71
2022/07/13 10:35:20;;;;;;;5.53;3.10;;;;;;;32.80;41.21;101992.22;10418270;28;20061;-71
2022/07/13 10:40:22;;;;;;;3.70;3.13;;;;;;;33.31;42.05;101999.22;10416154;28;20033;-72
2022/07/13 10:50:49;;;;;;;7.47;3.95;;;;;;;34.53;39.54;102013.47;10417477;28;20081;-70
2022/07/13 10:55:49;;;;;;;4.72;3.53;;;;;;;34.00;40.90;101995.75;10418108;28;20029;-72
2022/07/13 11:00:50;;;;;;;4.53;4.00;;;;;;;33.22;40.89;101990.00;10416517;28;20029;-71
2022/07/13 11:06:04;;;;;;;6.70;3.33;;;;;;;32.87;42.72;101998.22;10416279;28;20045;-71
2022/07/13 11:11:15;;;;;;;3.70;3.40;;;;;;;33.43;41.77;101998.63;10415795;28;20048;-72
2022/07/13 11:16:47;;;;;;;6.03;2.63;;;;;;;34.39;39.13;101999.53;10414824;28;20044;-71
2022/07/13 11:22:07;;;;;;;4.05;3.08;;;;;;;34.66;40.32;102029.31;10397982;28;20552;-71
2022/07/13 11:27:11;;;;;;;5.95;3.00;;;;;;;34.20;40.22;102025.19;10398206;28;20477;-71
2022/07/13 11:32:12;;;;;;;4.32;3.28;;;;;;;34.78;39.14;102021.00;10398387;28;20045;-72
2022/07/13 11:37:12;;;;;;;3.30;2.85;;;;;;;34.07;39.06;102020.56;10415215;28;20056;-71
2022/07/13 11:42:13;;;;;;;4.70;3.35;;;;;;;33.20;41.55;102025.97;10414105;28;20037;-71
2022/07/13 11:47:13;;;;;;;3.05;2.80;;;;;;;33.41;41.61;102017.75;10398066;28;20043;-71
2022/07/13 11:52:18;;;;;;;3.80;3.35;;;;;;;34.35;39.69;102024.69;10397819;28;20045;-71
2022/07/13 11:57:19;;;;;;;5.18;3.85;;;;;;;34.76;39.47;102034.56;10414504;28;20045;-71
2022/07/13 12:02:20;;;;;;;3.03;2.83;;;;;;;35.11;39.80;102040.13;10415124;28;20038;-70
2022/07/13 12:07:23;;;;;;;3.63;3.22;;;;;;;35.02;38.21;102025.22;10413353;28;20038;-72
2022/07/13 12:12:32;;;;;;;3.60;2.95;;;;;;;35.11;38.25;102034.47;10414803;28;20304;-71
2022/07/13 12:17:48;;;;;;;2.42;2.22;;;;;;;35.32;37.11;102026.94;10398148;28;20445;-71
2022/07/13 12:22:53;;;;;;;2.45;2.30;;;;;;;35.25;36.80;102029.44;10414402;28;20056;-72
2022/07/13 12:27:54;;;;;;;4.88;2.55;;;;;;;35.18;38.05;102037.59;10396997;28;20044;-71
2022/07/13 12:33:05;;;;;;;2.85;2.65;;;;;;;35.06;36.79;102038.28;10380464;28;20046;-71
2022/07/13 12:38:08;;;;;;;4.47;2.85;;;;;;;35.10;36.01;102044.94;10413008;28;20120;-72
2022/07/13 12:43:29;;;;;;;5.25;2.40;;;;;;;34.78;36.25;102040.69;10399332;28;20035;-71
2022/07/13 12:48:33;;;;;;;3.50;3.20;;;;;;;34.98;36.68;102043.94;10420745;28;20059;-70
2022/07/13 12:53:56;;;;;;;5.10;3.30;;;;;;;34.11;37.80;102058.09;10425074;28;20041;-71
2022/07/13 12:59:00;;;;;;;4.85;3.80;;;;;;;32.48;39.88;102064.28;10421985;28;20033;-71
2022/07/13 13:04:01;;;;;;;5.32;4.18;;;;;;;33.42;39.41;102058.75;10436190;28;20063;-73
2022/07/13 13:09:02;;;;;;;3.28;2.97;;;;;;;32.27;40.49;102063.94;10421024;28;20056;-71
2022/07/13 13:14:03;;;;;;;5.57;3.08;;;;;;;31.67;41.15;102070.59;10421566;28;20083;-71
2022/07/13 13:19:03;;;;;;;3.42;2.90;;;;;;;31.21;41.29;102076.28;10435891;28;20082;-71
2022/07/13 13:24:06;;;;;;;4.60;2.35;;;;;;;31.09;40.84;102085.16;10419427;28;20124;-71
2022/07/13 13:34:26;;;;;;;5.82;2.83;;;;;;;30.45;41.99;102079.22;10419441;28;20048;-70
2022/07/13 13:39:26;;;;;;;10.35;2.63;;;;;;;30.79;41.16;102081.78;10418614;28;20030;-71
2022/07/13 13:44:26;;;;;;;3.70;2.30;;;;;;;31.72;40.97;102076.09;10418894;28;20041;-71
2022/07/13 13:49:27;;;;;;;2.65;2.45;;;;;;;31.54;41.25;102065.84;10419473;28;20370;-71
2022/07/13 13:54:28;;;;;;;2.57;2.37;;;;;;;31.41;40.62;102083.47;10420065;28;20060;-69
2022/07/13 13:59:28;;;;;;;2.45;2.22;;;;;;;31.26;40.92;102079.78;10418804;28;20317;-70
2022/07/13 14:04:30;;;;;;;3.83;2.23;;;;;;;30.88;41.50;102083.84;10418377;28;20480;-70
2022/07/13 14:09:30;;;;;;;3.03;2.83;;;;;;;30.73;41.41;102080.19;10401396;28;20662;-71
2022/07/13 14:14:31;;;;;;;4.07;2.35;;;;;;;30.54;42.51;102080.22;10417708;28;20044;-71
2022/07/13 14:19:31;;;;;;;12.90;2.65;;;;;;;30.23;43.43;102090.19;10401318;28;20034;-71
2022/07/13 14:24:31;;;;;;;3.15;1.88;;;;;;;30.02;43.55;102081.22;10418089;28;20064;-70
2022/07/13 14:29:32;;;;;;;3.00;2.33;;;;;;;29.49;44.71;102093.34;10417081;28;20037;-72
2022/07/13 14:34:32;;;;;;;3.42;2.40;;;;;;;28.70;45.83;102099.09;10399669;28;20377;-71
2022/07/13 14:39:34;;;;;;;6.28;2.53;;;;;;;28.26;46.67;102113.03;10417395;28;20068;-71
2022/07/13 14:44:35;;;;;;;4.78;2.78;;;;;;;27.97;47.11;102118.47;10399833;28;20060;-70
2022/07/13 14:49:35;;;;;;;3.65;3.20;;;;;;;27.87;47.81;102108.22;10399195;28;20128;-70
2022/07/13 14:54:36;;;;;;;7.03;3.42;;;;;;;27.65;48.30;102129.97;10428312;28;20512;-71
2022/07/13 14:59:37;;;;;;;4.03;3.03;;;;;;;26.93;49.92;102112.53;10416398;28;20045;-70
2022/07/13 15:04:40;;;;;;;4.15;3.20;;;;;;;26.87;50.33;102122.84;10414957;28;20096;-69
2022/07/13 15:09:40;;;;;;;10.45;3.83;;;;;;;26.66;50.84;102127.53;10416667;28;20393;-70
2022/07/13 15:14:41;;;;;;;7.20;3.63;;;;;;;26.47;50.93;102134.72;10416538;28;20108;-71
2022/07/13 15:19:41;;;;;;;7.00;3.58;;;;;;;26.11;52.47;102135.44;10430619;28;20068;-70
2022/07/13 15:24:42;;;;;;;6.68;4.35;;;;;;;25.64;55.01;102119.66;10416136;28;20055;-70
2022/07/13 15:29:42;;;;;;;5.80;2.90;;;;;;;25.73;52.32;102131.09;10415529;28;20117;-70
2022/07/13 15:34:43;;;;;;;5.60;3.03;;;;;;;25.85;53.07;102128.13;10399110;28;20032;-71
2022/07/13 15:39:43;;;;;;;11.63;2.83;;;;;;;25.45;53.29;102124.00;10430238;28;20472;-70
2022/07/13 15:44:45;;;;;;;4.72;3.63;;;;;;;25.34;53.55;102122.28;10414976;28;20037;-71
2022/07/13 15:49:45;;;;;;;3.50;3.20;;;;;;;25.43;53.05;102115.09;10413973;28;20050;-71
2022/07/13 15:54:45;;;;;;;7.05;3.65;;;;;;;25.38;53.53;102117.84;10416843;28;20064;-71
2022/07/13 15:59:46;;;;;;;10.82;3.92;;;;;;;25.63;52.96;102117.16;10414664;28;20045;-71
2022/07/13 16:04:46;;;;;;;4.60;3.88;;;;;;;25.80;52.99;102120.56;10414168;28;20037;-70
2022/07/13 16:09:47;;;;;;;3.37;2.87;;;;;;;25.40;54.48;102124.81;10414269;28;20029;-72
2022/07/13 16:14:47;;;;;;;11.50;3.03;;;;;;;24.98;55.23;102117.28;10414659;28;20734;-70
2022/07/13 16:19:48;;;;;;;5.40;3.17;;;;;;;24.86;54.77;102116.63;10420534;28;20075;-70
2022/07/13 16:24:48;;;;;;;6.95;3.03;;;;;;;24.20;57.49;102130.59;10405503;28;20453;-71
2022/07/13 16:29:48;;;;;;;9.80;2.67;;;;;;;23.54;57.95;102132.47;10422525;28;20120;-71
2022/07/13 16:34:49;;;;;;;2.75;2.55;;;;;;;23.28;56.88;102132.09;10422819;28;20498;-72
2022/07/13 16:39:49;;;;;;;7.03;3.65;;;;;;;22.88;56.34;102130.31;10420981;28;20048;-70
2022/07/13 16:44:50;;;;;;;5.37;3.43;;;;;;;22.51;57.08;102144.56;10422031;28;20346;-71
2022/07/13 16:49:50;;;;;;;6.25;2.75;;;;;;;22.11;58.85;102141.78;10421824;28;20278;-70
2022/07/13 16:54:50;;;;;;;4.15;3.33;;;;;;;21.80;58.12;102134.81;10422502;28;20152;-71
2022/07/13 16:59:51;;;;;;;5.72;2.53;;;;;;;21.64;59.50;102141.91;10387401;28;20137;-72
2022/07/13 17:04:51;;;;;;;5.80;3.17;;;;;;;21.48;64.10;102137.13;10421938;28;20044;-71
2022/07/13 17:09:52;;;;;;;9.88;2.33;;;;;;;21.40;62.51;102138.31;10421825;28;20057;-70
2022/07/13 17:14:52;;;;;;;7.22;3.65;;;;;;;21.39;63.07;102128.38;10420534;28;20364;-70
2022/07/13 17:19:52;;;;;;;6.47;2.72;;;;;;;21.43;62.02;102135.09;10403282;28;20473;-70
2022/07/13 17:24:53;;;;;;;10.10;3.47;;;;;;;21.54;59.74;102133.41;10404086;28;20121;-70
2022/07/13 17:29:53;;;;;;;5.97;2.60;;;;;;;21.56;58.64;102131.25;10418438;28;20033;-71
2022/07/13 17:34:54;;;;;;;8.57;3.55;;;;;;;21.44;59.77;102135.91;10420343;28;20029;-71
2022/07/13 17:39:54;;;;;;;9.43;3.55;;;;;;;21.07;64.09;102134.19;10419717;28;20037;-70
2022/07/13 17:44:55;;;;;;;2.92;2.72;;;;;;;20.87;64.08;102133.72;10421263;28;20037;-71
2022/07/13 17:49:55;;;;;;;16.52;3.30;;;;;;;20.67;65.85;102129.31;10401289;28;20048;-70
2022/07/13 17:54:56;;;;;;;16.45;4.93;;;;;;;20.42;68.90;102145.13;10431327;28;20050;-70
2022/07/13 17:59:56;;;;;;;5.38;2.60;;;;;;;20.20;68.01;102137.38;10419277;28;20389;-71
2022/07/13 18:04:59;;;;;;;6.40;3.00;;;;;;;20.05;69.54;102139.69;10433319;28;20112;-71
2022/07/13 18:09:59;;;;;;;7.50;2.92;;;;;;;19.95;69.87;102142.97;10432460;28;20081;-70
2022/07/13 18:15:01;;;;;;;5.20;2.85;;;;;;;20.03;66.76;102140.97;10418020;28;20373;-70
2022/07/13 18:20:01;;;;;;;9.35;3.75;;;;;;;19.96;68.79;102149.31;10419263;28;20038;-71
2022/07/13 18:25:03;;;;;;;4.22;2.22;;;;;;;19.96;67.99;102152.06;10416704;28;20057;-70
2022/07/13 18:30:04;;;;;;;3.83;2.38;;;;;;;19.87;70.07;102143.28;10419279;28;20225;-71
2022/07/13 18:35:06;;;;;;;7.38;2.90;;;;;;;19.83;69.12;102154.97;10417504;28;20096;-68
2022/07/13 18:40:07;;;;;;;4.88;2.90;;;;;;;19.86;66.22;102146.28;10417496;28;20083;-68
2022/07/13 18:45:08;;;;;;;9.38;2.25;;;;;;;19.82;65.69;102153.31;10432604;28;20393;-70
2022/07/13 18:50:08;;;;;;;3.70;1.65;;;;;;;19.73;67.70;102150.00;10415958;28;20029;-70
2022/07/13 18:55:09;;;;;;;4.90;2.58;;;;;;;19.53;67.43;102152.94;10430958;28;20083;-69
2022/07/13 19:00:10;;;;;;;9.55;2.80;;;;;;;19.42;65.69;102149.00;10417007;28;20041;-68
2022/07/13 19:05:13;;;;;;;3.90;2.33;;;;;;;19.25;64.94;102145.19;10415219;28;20065;-69
2022/07/13 19:10:13;;;;;;;14.15;3.38;;;;;;;18.97;70.33;102138.22;10415895;28;20064;-69
2022/07/13 19:15:14;;;;;;;7.05;2.67;;;;;;;18.83;68.69;102138.56;10416025;28;20120;-70
2022/07/13 19:20:14;;;;;;;7.43;2.22;;;;;;;18.76;65.90;102139.44;10432483;28;20121;-70
2022/07/13 19:30:33;;;;;;;6.78;2.60;;;;;;;18.38;65.78;102138.56;10414401;28;20132;-71
2022/07/13 19:35:34;;;;;;;5.43;2.33;;;;;;;18.30;65.87;102154.22;10416020;28;20479;-68
2022/07/13 19:40:34;;;;;;;10.43;3.45;;;;;;;18.16;65.94;102151.78;10416973;28;20033;-71
2022/07/13 19:45:35;;;;;;;10.15;2.88;;;;;;;18.04;66.33;102157.09;10417165;28;20114;-69
2022/07/13 19:50:35;;;;;;;7.75;3.38;;;;;;;17.94;67.04;102149.34;10431640;28;20044;-69
2022/07/13 19:55:35;;;;;;;8.50;3.55;;;;;;;17.85;66.38;102145.13;10421631;28;20037;-70
2022/07/13 20:00:37;;;;;;;2.25;2.05;;;;;;;17.81;66.79;102158.44;10405145;28;20067;-70
2022/07/13 20:05:38;;;;;;;3.63;2.40;;;;;;;17.72;66.25;102162.44;10419891;28;20064;-69
2022/07/13 20:10:38;;;;;;;12.85;3.03;;;;;;;17.65;66.61;102158.88;10420068;28;20484;-71
2022/07/13 20:15:39;;;;;;;7.10;2.72;;;;;;;17.58;66.54;102160.75;10420938;28;20033;-68
2022/07/13 20:20:40;;;;;;;4.88;2.55;;;;;;;17.49;66.88;102162.91;10404167;28;20389;-69
2022/07/13 20:25:41;;;;;;;4.88;3.15;;;;;;;17.41;66.98;102168.56;10417962;28;20464;-69
2022/07/13 20:30:41;;;;;;;10.43;2.63;;;;;;;17.35;67.35;102180.38;10419852;28;20044;-68
2022/07/13 20:35:42;;;;;;;8.98;2.55;;;;;;;17.31;67.94;102179.13;10402932;28;20049;-68
2022/07/13 20:40:42;;;;;;;5.03;2.33;;;;;;;17.30;67.59;102196.63;10404440;28;20034;-69
2022/07/13 20:45:43;;;;;;;11.40;4.25;;;;;;;17.29;67.51;102198.47;10420238;28;20065;-69
2022/07/13 20:50:43;;;;;;;6.75;2.22;;;;;;;17.22;68.02;102189.44;10421313;28;20034;-68
2022/07/13 20:55:43;;;;;;;19.73;2.80;;;;;;;17.25;70.99;102201.88;10404528;28;20080;-68
2022/07/13 21:00:44;;;;;;;5.00;2.65;;;;;;;17.25;69.18;102177.22;10423477;28;20034;-68
2022/07/13 21:05:44;;;;;;;7.75;2.55;;;;;;;17.22;71.31;102177.66;10408025;28;20040;-68
2022/07/13 21:10:45;;;;;;;11.93;2.50;;;;;;;17.22;71.91;102175.75;10393217;28;20065;-69
2022/07/13 21:15:46;;;;;;;4.35;3.22;;;;;;;17.20;72.92;102188.81;10430256;28;20358;-70
2022/07/13 21:20:47;;;;;;;7.15;3.05;;;;;;;17.15;72.99;102177.66;10431711;28;20112;-71
2022/07/13 21:25:59;;;;;;;9.18;2.40;;;;;;;17.07;73.92;102188.78;10427996;28;20040;-71
2022/07/13 21:31:00;;;;;;;14.38;2.17;;;;;;;16.98;74.05;102185.44;10427165;28;20040;-71
2022/07/13 21:36:00;;;;;;;5.72;3.50;;;;;;;16.88;72.24;102188.56;10405540;28;20032;-71
2022/07/13 21:41:01;;;;;;;12.25;3.35;;;;;;;16.80;73.90;102177.81;10422256;28;20034;-70
2022/07/13 21:46:01;;;;;;;4.25;2.60;;;;;;;16.78;74.18;102179.91;10403082;28;20037;-70
2022/07/13 21:51:02;;;;;;;6.55;2.92;;;;;;;16.75;77.02;102177.59;10419757;28;20136;-70
2022/07/13 21:56:02;;;;;;;9.05;3.53;;;;;;;16.77;75.79;102164.56;10418531;28;20064;-70
2022/07/13 22:01:02;;;;;;;10.02;3.72;;;;;;;16.73;75.50;102168.72;10417810;28;20037;-70
2022/07/13 22:06:21;;;;;;;7.50;1.73;;;;;;;16.68;75.93;102171.22;10418104;28;20477;-70
2022/07/13 22:11:59;;;;;;;10.38;2.78;;;;;;;16.61;76.16;102167.66;10419845;28;20040;-71
2022/07/13 22:17:37;;;;;;;6.13;1.88;;;;;;;16.55;74.84;102171.22;10418939;28;20040;-70
2022/07/13 22:22:55;;;;;;;;;;;;;;;16.49;74.63;102167.41;10419021;28;20033;-71
2022/07/13 22:28:33;;;;;;;5.10;2.38;;;;;;;16.42;75.08;102167.38;10418366;28;19963;-70
2022/07/13 22:33:52;;;;;;;;;;;;;;;16.41;75.88;102173.06;10418565;28;20064;-70
2022/07/13 22:39:29;;;;;;;9.25;2.22;;;;;;;16.41;79.16;102162.13;10417876;28;19917;-71
2022/07/13 22:44:48;;;;;;;;;;;;;;;16.39;77.18;102186.94;10418282;28;20130;-70
2022/07/13 22:50:26;;;;;;;2.67;2.25;;;;;;;16.36;76.43;102181.88;10417556;28;19909;-70
2022/07/13 22:56:04;;;;;;;8.85;2.80;;;;;;;16.35;75.81;102187.56;10418652;28;20053;-71
2022/07/13 23:01:41;;;;;;;8.10;3.25;;;;;;;16.30;78.23;102177.22;10416705;28;20439;-70
2022/07/13 23:07:19;;;;;;;5.82;2.00;;;;;;;16.31;77.64;102176.19;10416789;28;20029;-71
2022/07/13 23:12:57;;;;;;;7.00;3.05;;;;;;;16.34;76.17;102175.78;10416595;28;20523;-70
2022/07/13 23:18:34;;;;;;;8.30;2.05;;;;;;;16.38;75.72;102168.00;10416432;28;20469;-71
2022/07/13 23:23:53;;;;;;;;;;;;;;;16.40;75.20;102157.69;10417938;28;20041;-69
2022/07/13 23:28:53;;;;;;;19.70;4.35;;;;;;;16.43;75.86;102152.69;10415671;28;19909;-70
2022/07/13 23:33:54;;;;;;;7.60;2.25;;;;;;;16.43;76.43;102144.47;10399691;28;20432;-70
2022/07/13 23:38:54;;;;;;;7.47;2.67;;;;;;;16.37;77.41;102141.69;10415687;28;20037;-69